Flight Track Log - Related Links

Times and Time Zones

All times are in EDT time to prevent confusion due to time zone crossing. See the LXJ437 flight status page for this flight to view local times or setup timezone preferences in your user account.

Time Position Orientation Groundspeed Altitude Reporting Facility
EDT Latitude Longitude Course Direction KTS MPH feet Rate Location/Type
Tue 07:41:31 PM 40.6500 -73.8000 229° Southwest 154 177 800  Level New York TRACON
Tue 07:42:25 PM 40.6167 -73.8500 229° Southwest 178 205 3,500 1,684 Climbing New York TRACON
Tue 07:43:25 PM 40.5833 -73.9000 229° Southwest 219 252 4,000 238 Climbing New York TRACON
Tue 07:44:31 PM 40.5167 -73.9333 201° Southwest 278 320 4,000  Level New York TRACON
Tue 07:46:00 PM 40.4280 -73.9679 197° South  Level FlightAware Approximate
Tue 07:50:07 PM 40.1500 -74.1333 294° West 260 299 4,000  Level New York TRACON
Tue 07:51:07 PM 40.1500 -74.2167 270° West 253 291 4,000  Level New York TRACON
Tue 07:52:07 PM 40.1667 -74.3167 282° West 245 282 4,000  Level New York TRACON
Tue 07:53:00 PM 40.1133 -74.2230 294° West  Level FlightAware Approximate
Tue 07:53:07 PM 40.1833 -74.4000 285° West 241 277 4,000  Level New York TRACON
Tue 07:54:00 PM 40.1383 -74.2977 294° West  Level FlightAware Approximate
Tue 07:54:07 PM 40.2000 -74.4833 285° West 237 273 4,000  Level New York TRACON
Tue 07:55:00 PM 40.1632 -74.3725 294° West  Level FlightAware Approximate
Tue 07:55:13 PM 40.2500 -74.5500 315° West 247 284 4,000  Level New York TRACON
Tue 07:56:07 PM 40.3000 -74.6000 323° Northwest 244 281 4,000  Level New York TRACON
Tue 07:57:13 PM 40.3667 -74.6333 339° North 265 305 4,000  Level New York TRACON
Tue 07:58:13 PM 40.4500 -74.6167 North 268 308 4,000  Level New York TRACON
Tue 07:59:13 PM 40.5167 -74.6000 11° North 269 310 4,000  Level New York TRACON
Tue 08:00:13 PM 40.6000 -74.5833 North 271 312 4,000  Level New York TRACON
Tue 08:01:13 PM 40.6667 -74.5500 21° North 270 311 4,000  Level New York TRACON
Tue 08:02:13 PM 40.7333 -74.5333 11° North 266 306 4,000 -350 Level New York TRACON
Tue 08:03:13 PM 40.8000 -74.4833 30° Northeast 293 337 3,300 -500 Descending New York TRACON
Tue 08:04:13 PM 40.8500 -74.4167 45° Northeast 284 327 3,000 -150 Descending New York TRACON
Tue 08:05:13 PM 40.9000 -74.3500 45° Northeast 234 269 3,000  Level New York TRACON
Tue 08:06:13 PM 40.9500 -74.2833 45° Northeast 238 274 3,000  Level New York TRACON
Tue 08:07:07 PM 40.9667 -74.2167 72° East 246 283 3,000 -474 Level New York TRACON
Tue 08:08:07 PM 40.9833 -74.1333 75° East 228 262 2,100 -700 Descending New York TRACON
Tue 08:09:07 PM 40.9500 -74.0667 123° Southeast 208 239 1,600 -450 Descending New York TRACON
Tue 08:10:07 PM 40.9167 -74.0500 159° South 129 148 1,200 -526 Descending New York TRACON
Tue 08:11:01 PM 40.8833 -74.0500 180° South 127 146 600 -526 Descending New York TRACON
Tue 08:12:01 PM 40.8500 -74.0667 201° Southwest 132 152 200 -400 Descending New York TRACON
Tue 08:14:00 PM 40.8501 -74.0608 90° East  Level Estimated
Tue 08:21:00 PM 40.8501 -74.0608 90° East  Level Estimated
Tue 08:22:00 PM 40.8501 -74.0608 90° East  Level Estimated
Tue 08:23:00 PM 40.8501 -74.0608 90° East  Level Estimated

Login

Don't have an account? Register now (free) for customized features, flight alerts, and more!